Overview Statistics Trail Chart Weather Telemetry Raw packets
 

This is the latest recevied weather packets stored in our database for station/object TA2LKM-11. If no packets are shown the sender has not sent any weather packets the latest 10 day(s).

<< 3 4 5 6 7 8 9 >>
Time Temp. Humidity Pressure Rain* Wind** Luminosity Snow
1788583402 31.67° C 40% 1016.6 hPa - - - -
1788582501 27.78° C 45% 1016.4 hPa - - - -
1788581601 25° C 48% 1016.1 hPa - - - -
1788581512 25° C 49% 1016 hPa - - - -
1788580611 20.56° C 58% 1015.6 hPa - - - -
1788579710 20° C 58% 1015.2 hPa - - - -
1788578809 22.78° C 47% 1015 hPa - - - -
1788577909 22.78° C 47% 1014.9 hPa - - - -
1788577007 23.33° C 47% 1014.9 hPa - - - -
1788576135 23.33° C 48% 1014.8 hPa - - - -
1788575117 22.78° C 48% 1014.8 hPa - - - -
1788574216 22.78° C 48% 1014.8 hPa - - - -
1788573316 23.33° C 47% 1014.8 hPa - - - -
1788572415 23.89° C 44% 1014.6 hPa - - - -
1788571514 23.89° C 44% 1014.6 hPa - - - -
1788571425 23.89° C 44% 1014.6 hPa - - - -
1788570524 23.89° C 44% 1014.6 hPa - - - -
1788569623 23.89° C 44% 1014.6 hPa - - - -
1788568722 23.89° C 44% 1014.6 hPa - - - -
1788567822 23.89° C 45% 1014.5 hPa - - - -
1788566921 23.89° C 47% 1014.5 hPa - - - -
1788566021 23.33° C 50% 1014.6 hPa - - - -
1788563140 23.89° C 46% 1015 hPa - - - -
1788562240 23.89° C 46% 1015 hPa - - - -
1788561340 23.89° C 46% 1015 hPa - - - -

* Rain since midnight (hover to see other rain measurements)
** Current wind speed in m/s (hover to see current wind gust speed)